الصفحة الرئيسية
METAR-TAF:

METAR-TAF

مطار :

Vanua Lava, فانواتو

دائرة عرض: 13-51-06S, خط طول: 167-32-13E, ارتفاع: 2 متر

مراقبة الطقس الحالي

تاريخ ووقت الإصدار 5ساعات و 17 دقيقة قبل الساعة 12:00UTC
رياح هادئة
درجة الحرارة 26°درجة مئوية
الرطوبة 100%
ضغط 1011 hPa
الرؤية 10 كم أو أكثر
غيوم قليلة على ارتفاع 2000 قدم

METAR: NVSC 221200Z 00000KT 9999 FEW020 26/26 Q1011

زمن: 04:17 (17:17 UTC)

توقعات

تاريخ ووقت الإصدار 7ساعات و 17 دقيقة قبل الساعة 10:00UTC
التوقعات صالحة من22 الساعة 12 UTC إلى 23 الساعة 12 UTC
ريح 2 عقدةمن اتجاهات متغيرة
الرؤية 10 كم أو أكثر
غيوم متفرقة على ارتفاع 2000 قدم

TAF: NVSC 221000Z 2212/2312 VRB02KT 9999 SCT020

أرصاد الطقس والتوقعات من أكثر من 4000 مطار (تقارير الطقس للمطار METAR والتنبؤ بالطقس بالمطارTAF).

المحطات المتاحة هي النقط الصفراء والحمراء على الخريطة.

حرك المؤشر فوق النقطة لمعرفة اسم المحطة.

ثم انقر لمعرفة أرصاد وتوقعات الطقس.

لتغيير الخارطة: اضغط على الأزرار الخضراء مع رمز الصليب الأسود للتكبير. على الزر الأخضر مع شرطة للتصغير، أو على الأسهم الخضراء للخرائط المجاورة.


METAR-TAF: